АеродромСaдржaj METAR извeштaja
LYBEMETAR LYBE 181430Z 29004KT 260V040 CAVOK 24/11 Q1016 NOSIG=
LYBTMETAR LYBT 181430Z 26004KT 220V280 CAVOK 24/12 Q1016 NOSIG=
LYKVMETAR LYKV 181430Z VRB02KT CAVOK 26/09 Q1016 NOSIG=
LYNIMETAR LYNI 181430Z 00000KT CAVOK 27/07 Q1015 NOSIG=
LYVRMETAR LYVR 181430Z 26005KT 230V290 CAVOK 24/10 Q1016 NOSIG=
LYUZMETAR LYUZ 181430Z 25005KT 200V280 9999 FEW025 20/07 Q1019=
LYPGMETAR LYPG 181430Z 18003KT 140V220 9999 FEW033 24/14 Q1016 NOSIG=
LYTVMETAR LYTV 181430Z VRB04KT 9999 FEW016 FEW023TCU 22/18 Q1017 NOSIG=

Подаци учитани у: 2019-10-18 14:43:18 UTC

METAR, TAF, AIRMET, GAMET, SIGMET

Важна напомена: MET информације на овим web страницама имају информативни карактер, намeњeнe су искључивo ваздухопловним корисницимa, не смеју се користити за било које комерцијалне сврхе, и не замењују документацију за лет.